sensor_id;sensor_type;location;lat;lon;timestamp;temperature;humidity
14370;DHT22;7268;50.792;0.252;2023-07-31T00:02:20;16.30;99.90
14370;DHT22;7268;50.792;0.252;2023-07-31T00:04:47;16.20;99.90
14370;DHT22;7268;50.792;0.252;2023-07-31T00:07:13;16.20;99.90
14370;DHT22;7268;50.792;0.252;2023-07-31T00:09:40;16.10;99.90
14370;DHT22;7268;50.792;0.252;2023-07-31T00:12:07;16.10;99.90
14370;DHT22;7268;50.792;0.252;2023-07-31T00:14:34;16.00;99.90
14370;DHT22;7268;50.792;0.252;2023-07-31T00:17:01;16.00;99.90
14370;DHT22;7268;50.792;0.252;2023-07-31T00:19:28;16.00;99.90
14370;DHT22;7268;50.792;0.252;2023-07-31T00:21:55;16.00;99.90
14370;DHT22;7268;50.792;0.252;2023-07-31T00:24:22;16.00;99.90
14370;DHT22;7268;50.792;0.252;2023-07-31T00:26:49;16.00;99.90
14370;DHT22;7268;50.792;0.252;2023-07-31T00:29:16;16.00;99.90
14370;DHT22;7268;50.792;0.252;2023-07-31T00:31:42;16.00;99.90
14370;DHT22;7268;50.792;0.252;2023-07-31T00:34:09;16.00;99.90
14370;DHT22;7268;50.792;0.252;2023-07-31T00:36:36;16.10;99.90
14370;DHT22;7268;50.792;0.252;2023-07-31T00:39:04;16.10;99.90
14370;DHT22;7268;50.792;0.252;2023-07-31T00:41:31;16.10;99.90
14370;DHT22;7268;50.792;0.252;2023-07-31T00:43:58;16.10;99.90
14370;DHT22;7268;50.792;0.252;2023-07-31T00:46:25;16.10;99.90
14370;DHT22;7268;50.792;0.252;2023-07-31T00:48:52;16.10;99.90
14370;DHT22;7268;50.792;0.252;2023-07-31T00:51:18;16.10;99.90
14370;DHT22;7268;50.792;0.252;2023-07-31T00:53:47;16.10;99.90
14370;DHT22;7268;50.792;0.252;2023-07-31T00:56:14;16.10;99.90
14370;DHT22;7268;50.792;0.252;2023-07-31T00:58:41;16.10;99.90
14370;DHT22;7268;50.792;0.252;2023-07-31T01:01:07;16.10;99.90
14370;DHT22;7268;50.792;0.252;2023-07-31T01:03:34;16.10;99.90
14370;DHT22;7268;50.792;0.252;2023-07-31T01:09:02;16.10;99.90
14370;DHT22;7268;50.792;0.252;2023-07-31T01:11:33;16.10;99.90
14370;DHT22;7268;50.792;0.252;2023-07-31T01:14:00;16.00;99.90
14370;DHT22;7268;50.792;0.252;2023-07-31T01:16:27;16.00;99.90
14370;DHT22;7268;50.792;0.252;2023-07-31T01:18:54;16.00;99.90
14370;DHT22;7268;50.792;0.252;2023-07-31T01:26:37;16.00;99.90
14370;DHT22;7268;50.792;0.252;2023-07-31T01:29:15;16.00;99.90
14370;DHT22;7268;50.792;0.252;2023-07-31T01:31:45;16.00;99.90
14370;DHT22;7268;50.792;0.252;2023-07-31T01:34:15;16.00;99.90
14370;DHT22;7268;50.792;0.252;2023-07-31T01:36:44;16.00;99.90
14370;DHT22;7268;50.792;0.252;2023-07-31T01:39:11;16.10;99.90
14370;DHT22;7268;50.792;0.252;2023-07-31T01:41:38;16.10;99.90
14370;DHT22;7268;50.792;0.252;2023-07-31T01:44:08;16.00;99.90
14370;DHT22;7268;50.792;0.252;2023-07-31T01:46:35;16.10;99.90
14370;DHT22;7268;50.792;0.252;2023-07-31T01:49:02;16.10;99.90
14370;DHT22;7268;50.792;0.252;2023-07-31T01:51:28;16.10;99.90
14370;DHT22;7268;50.792;0.252;2023-07-31T01:53:55;16.10;99.90
14370;DHT22;7268;50.792;0.252;2023-07-31T01:56:22;16.20;99.90
14370;DHT22;7268;50.792;0.252;2023-07-31T01:58:49;16.10;99.90
14370;DHT22;7268;50.792;0.252;2023-07-31T02:01:16;16.20;99.90
14370;DHT22;7268;50.792;0.252;2023-07-31T02:03:43;16.20;99.90
14370;DHT22;7268;50.792;0.252;2023-07-31T02:06:10;16.20;99.90
14370;DHT22;7268;50.792;0.252;2023-07-31T02:08:37;16.20;99.90
14370;DHT22;7268;50.792;0.252;2023-07-31T02:11:04;16.20;99.90
14370;DHT22;7268;50.792;0.252;2023-07-31T02:13:31;16.20;99.90
14370;DHT22;7268;50.792;0.252;2023-07-31T02:15:58;16.20;99.90
14370;DHT22;7268;50.792;0.252;2023-07-31T02:18:25;16.20;99.90
14370;DHT22;7268;50.792;0.252;2023-07-31T02:20:52;16.20;99.90
14370;DHT22;7268;50.792;0.252;2023-07-31T02:23:19;16.30;99.90
14370;DHT22;7268;50.792;0.252;2023-07-31T02:25:46;16.30;99.90
14370;DHT22;7268;50.792;0.252;2023-07-31T02:28:13;16.30;99.90
14370;DHT22;7268;50.792;0.252;2023-07-31T02:30:44;16.30;99.90
14370;DHT22;7268;50.792;0.252;2023-07-31T02:33:11;16.30;99.90
14370;DHT22;7268;50.792;0.252;2023-07-31T02:35:38;16.30;99.90
14370;DHT22;7268;50.792;0.252;2023-07-31T02:38:05;16.30;99.90
14370;DHT22;7268;50.792;0.252;2023-07-31T02:40:32;16.40;99.90
14370;DHT22;7268;50.792;0.252;2023-07-31T02:42:59;16.40;99.90
14370;DHT22;7268;50.792;0.252;2023-07-31T02:45:26;16.40;99.90
14370;DHT22;7268;50.792;0.252;2023-07-31T02:47:53;16.40;99.90
14370;DHT22;7268;50.792;0.252;2023-07-31T02:50:20;16.40;99.90
14370;DHT22;7268;50.792;0.252;2023-07-31T02:52:47;16.40;99.90
14370;DHT22;7268;50.792;0.252;2023-07-31T02:55:14;16.40;99.90
14370;DHT22;7268;50.792;0.252;2023-07-31T02:57:41;16.40;99.90
14370;DHT22;7268;50.792;0.252;2023-07-31T03:00:08;16.30;99.90
14370;DHT22;7268;50.792;0.252;2023-07-31T03:02:36;16.30;99.90
14370;DHT22;7268;50.792;0.252;2023-07-31T03:05:03;16.30;99.90
14370;DHT22;7268;50.792;0.252;2023-07-31T03:07:30;16.30;99.90
14370;DHT22;7268;50.792;0.252;2023-07-31T03:09:57;16.30;99.90
14370;DHT22;7268;50.792;0.252;2023-07-31T03:12:24;16.30;99.90
14370;DHT22;7268;50.792;0.252;2023-07-31T03:14:51;16.30;99.90
14370;DHT22;7268;50.792;0.252;2023-07-31T03:17:17;16.30;99.90
14370;DHT22;7268;50.792;0.252;2023-07-31T03:19:44;16.30;99.90
14370;DHT22;7268;50.792;0.252;2023-07-31T03:22:11;16.30;99.90
14370;DHT22;7268;50.792;0.252;2023-07-31T03:24:38;16.30;99.90
14370;DHT22;7268;50.792;0.252;2023-07-31T03:27:05;16.20;99.90
14370;DHT22;7268;50.792;0.252;2023-07-31T03:29:32;16.30;99.90
14370;DHT22;7268;50.792;0.252;2023-07-31T03:31:59;16.30;99.90
14370;DHT22;7268;50.792;0.252;2023-07-31T03:34:26;16.30;99.90
14370;DHT22;7268;50.792;0.252;2023-07-31T03:36:53;16.30;99.90
14370;DHT22;7268;50.792;0.252;2023-07-31T03:39:20;16.40;99.90
14370;DHT22;7268;50.792;0.252;2023-07-31T03:41:47;16.40;99.90
14370;DHT22;7268;50.792;0.252;2023-07-31T03:44:14;16.40;99.90
14370;DHT22;7268;50.792;0.252;2023-07-31T03:46:41;16.40;99.90
14370;DHT22;7268;50.792;0.252;2023-07-31T03:49:08;16.30;99.90
14370;DHT22;7268;50.792;0.252;2023-07-31T03:51:35;16.30;99.90
14370;DHT22;7268;50.792;0.252;2023-07-31T03:54:02;16.40;99.90
14370;DHT22;7268;50.792;0.252;2023-07-31T03:56:29;16.40;99.90
14370;DHT22;7268;50.792;0.252;2023-07-31T03:58:58;16.40;99.90
14370;DHT22;7268;50.792;0.252;2023-07-31T04:01:25;16.40;99.90
14370;DHT22;7268;50.792;0.252;2023-07-31T04:03:52;16.40;99.90
14370;DHT22;7268;50.792;0.252;2023-07-31T04:06:19;16.40;99.90
14370;DHT22;7268;50.792;0.252;2023-07-31T04:08:46;16.40;99.90
14370;DHT22;7268;50.792;0.252;2023-07-31T04:11:13;16.40;99.90
14370;DHT22;7268;50.792;0.252;2023-07-31T04:13:40;16.40;99.90
14370;DHT22;7268;50.792;0.252;2023-07-31T04:16:07;16.50;99.90
14370;DHT22;7268;50.792;0.252;2023-07-31T04:18:34;16.50;99.90
14370;DHT22;7268;50.792;0.252;2023-07-31T04:21:01;16.50;99.90
14370;DHT22;7268;50.792;0.252;2023-07-31T04:23:29;16.50;99.90
14370;DHT22;7268;50.792;0.252;2023-07-31T04:25:56;16.50;99.90
14370;DHT22;7268;50.792;0.252;2023-07-31T04:28:23;16.50;99.90
14370;DHT22;7268;50.792;0.252;2023-07-31T04:30:50;16.50;99.90
14370;DHT22;7268;50.792;0.252;2023-07-31T04:33:17;16.50;99.90
14370;DHT22;7268;50.792;0.252;2023-07-31T04:35:51;16.50;99.90
14370;DHT22;7268;50.792;0.252;2023-07-31T04:38:20;16.60;99.90
14370;DHT22;7268;50.792;0.252;2023-07-31T04:40:47;16.50;99.90
14370;DHT22;7268;50.792;0.252;2023-07-31T04:43:14;16.50;99.90
14370;DHT22;7268;50.792;0.252;2023-07-31T04:45:50;16.60;99.90
14370;DHT22;7268;50.792;0.252;2023-07-31T04:48:17;16.60;99.90
14370;DHT22;7268;50.792;0.252;2023-07-31T04:50:44;16.60;99.90
14370;DHT22;7268;50.792;0.252;2023-07-31T04:53:11;16.60;99.90
14370;DHT22;7268;50.792;0.252;2023-07-31T04:55:38;16.60;99.90
14370;DHT22;7268;50.792;0.252;2023-07-31T04:58:04;16.60;99.90
14370;DHT22;7268;50.792;0.252;2023-07-31T05:00:31;16.60;99.90
14370;DHT22;7268;50.792;0.252;2023-07-31T05:02:58;16.60;99.90
14370;DHT22;7268;50.792;0.252;2023-07-31T05:05:25;16.60;99.90
14370;DHT22;7268;50.792;0.252;2023-07-31T05:07:52;16.60;99.90
14370;DHT22;7268;50.792;0.252;2023-07-31T05:10:19;16.70;99.90
14370;DHT22;7268;50.792;0.252;2023-07-31T05:12:46;16.70;99.90
14370;DHT22;7268;50.792;0.252;2023-07-31T05:15:13;16.70;99.90
14370;DHT22;7268;50.792;0.252;2023-07-31T05:17:42;16.70;99.90
14370;DHT22;7268;50.792;0.252;2023-07-31T05:20:10;16.70;99.90
14370;DHT22;7268;50.792;0.252;2023-07-31T05:22:37;16.70;99.90
14370;DHT22;7268;50.792;0.252;2023-07-31T05:25:05;16.70;99.90
14370;DHT22;7268;50.792;0.252;2023-07-31T05:27:32;16.80;99.90
14370;DHT22;7268;50.792;0.252;2023-07-31T05:29:59;16.80;99.90
14370;DHT22;7268;50.792;0.252;2023-07-31T05:32:26;16.80;99.90
14370;DHT22;7268;50.792;0.252;2023-07-31T05:34:53;16.80;99.90
14370;DHT22;7268;50.792;0.252;2023-07-31T05:37:20;16.80;99.90
14370;DHT22;7268;50.792;0.252;2023-07-31T05:39:47;16.80;99.90
14370;DHT22;7268;50.792;0.252;2023-07-31T05:42:14;16.80;99.90
14370;DHT22;7268;50.792;0.252;2023-07-31T05:44:41;16.80;99.90
14370;DHT22;7268;50.792;0.252;2023-07-31T05:47:08;16.80;99.90
14370;DHT22;7268;50.792;0.252;2023-07-31T05:49:35;16.80;99.90
14370;DHT22;7268;50.792;0.252;2023-07-31T05:52:02;16.80;99.90
14370;DHT22;7268;50.792;0.252;2023-07-31T05:54:29;16.80;99.90
14370;DHT22;7268;50.792;0.252;2023-07-31T05:56:56;16.90;99.90
14370;DHT22;7268;50.792;0.252;2023-07-31T05:59:23;16.90;99.90
14370;DHT22;7268;50.792;0.252;2023-07-31T06:01:50;16.90;99.90
14370;DHT22;7268;50.792;0.252;2023-07-31T06:04:17;16.90;99.90
14370;DHT22;7268;50.792;0.252;2023-07-31T06:06:44;16.90;99.90
14370;DHT22;7268;50.792;0.252;2023-07-31T06:09:11;16.90;99.90
14370;DHT22;7268;50.792;0.252;2023-07-31T06:11:38;17.00;99.90
14370;DHT22;7268;50.792;0.252;2023-07-31T06:14:05;16.90;99.90
14370;DHT22;7268;50.792;0.252;2023-07-31T06:16:32;16.90;99.90
14370;DHT22;7268;50.792;0.252;2023-07-31T06:18:59;16.90;99.90
14370;DHT22;7268;50.792;0.252;2023-07-31T06:21:26;16.90;99.90
14370;DHT22;7268;50.792;0.252;2023-07-31T06:23:53;16.90;99.90
14370;DHT22;7268;50.792;0.252;2023-07-31T06:26:20;16.90;99.90
14370;DHT22;7268;50.792;0.252;2023-07-31T06:28:47;16.90;99.90
14370;DHT22;7268;50.792;0.252;2023-07-31T06:31:13;16.90;99.90
14370;DHT22;7268;50.792;0.252;2023-07-31T06:33:40;16.90;99.90
14370;DHT22;7268;50.792;0.252;2023-07-31T06:36:07;16.90;99.90
14370;DHT22;7268;50.792;0.252;2023-07-31T06:38:34;16.90;99.90
14370;DHT22;7268;50.792;0.252;2023-07-31T06:41:01;17.00;99.90
14370;DHT22;7268;50.792;0.252;2023-07-31T06:43:28;17.00;99.90
14370;DHT22;7268;50.792;0.252;2023-07-31T06:45:55;17.00;99.90
14370;DHT22;7268;50.792;0.252;2023-07-31T06:48:22;17.00;99.90
14370;DHT22;7268;50.792;0.252;2023-07-31T06:50:49;17.00;99.90
14370;DHT22;7268;50.792;0.252;2023-07-31T06:53:16;17.10;99.90
14370;DHT22;7268;50.792;0.252;2023-07-31T06:55:43;17.10;99.90
14370;DHT22;7268;50.792;0.252;2023-07-31T06:58:09;17.10;99.90
14370;DHT22;7268;50.792;0.252;2023-07-31T07:00:37;17.10;99.90
14370;DHT22;7268;50.792;0.252;2023-07-31T07:03:04;17.10;99.90
14370;DHT22;7268;50.792;0.252;2023-07-31T07:05:31;17.10;99.90
14370;DHT22;7268;50.792;0.252;2023-07-31T07:07:58;17.10;99.90
14370;DHT22;7268;50.792;0.252;2023-07-31T07:10:25;17.20;99.90
14370;DHT22;7268;50.792;0.252;2023-07-31T07:12:53;17.10;99.90
14370;DHT22;7268;50.792;0.252;2023-07-31T07:15:22;17.10;99.90
14370;DHT22;7268;50.792;0.252;2023-07-31T07:17:48;17.10;99.90
14370;DHT22;7268;50.792;0.252;2023-07-31T07:20:15;17.20;99.90
14370;DHT22;7268;50.792;0.252;2023-07-31T07:22:42;17.20;99.90
14370;DHT22;7268;50.792;0.252;2023-07-31T07:25:09;17.10;99.90
14370;DHT22;7268;50.792;0.252;2023-07-31T07:27:36;17.10;99.90
14370;DHT22;7268;50.792;0.252;2023-07-31T07:30:04;17.10;99.90
14370;DHT22;7268;50.792;0.252;2023-07-31T07:32:32;17.10;99.90
14370;DHT22;7268;50.792;0.252;2023-07-31T07:34:59;17.20;99.90
14370;DHT22;7268;50.792;0.252;2023-07-31T07:37:26;17.20;99.90
14370;DHT22;7268;50.792;0.252;2023-07-31T07:39:53;17.10;99.90
14370;DHT22;7268;50.792;0.252;2023-07-31T07:42:20;17.20;99.90
14370;DHT22;7268;50.792;0.252;2023-07-31T07:44:47;17.20;99.90
14370;DHT22;7268;50.792;0.252;2023-07-31T07:47:14;17.10;99.90
14370;DHT22;7268;50.792;0.252;2023-07-31T07:49:41;17.20;99.90
14370;DHT22;7268;50.792;0.252;2023-07-31T07:52:09;17.20;99.90
14370;DHT22;7268;50.792;0.252;2023-07-31T07:54:36;17.20;99.90
14370;DHT22;7268;50.792;0.252;2023-07-31T07:57:03;17.20;99.90
14370;DHT22;7268;50.792;0.252;2023-07-31T07:59:30;17.20;99.90
14370;DHT22;7268;50.792;0.252;2023-07-31T08:01:57;17.20;99.90
14370;DHT22;7268;50.792;0.252;2023-07-31T08:04:24;17.20;99.90
14370;DHT22;7268;50.792;0.252;2023-07-31T08:06:51;17.20;99.90
14370;DHT22;7268;50.792;0.252;2023-07-31T08:09:18;17.20;99.90
14370;DHT22;7268;50.792;0.252;2023-07-31T08:11:45;17.20;99.90
14370;DHT22;7268;50.792;0.252;2023-07-31T08:14:12;17.20;99.90
14370;DHT22;7268;50.792;0.252;2023-07-31T08:16:39;17.20;99.90
14370;DHT22;7268;50.792;0.252;2023-07-31T08:19:06;17.10;99.90
14370;DHT22;7268;50.792;0.252;2023-07-31T08:21:33;17.10;99.90
14370;DHT22;7268;50.792;0.252;2023-07-31T08:24:00;17.10;99.90
14370;DHT22;7268;50.792;0.252;2023-07-31T08:26:27;17.10;99.90
14370;DHT22;7268;50.792;0.252;2023-07-31T08:28:54;17.10;99.90
14370;DHT22;7268;50.792;0.252;2023-07-31T08:31:21;17.10;99.90
14370;DHT22;7268;50.792;0.252;2023-07-31T08:33:48;17.10;99.90
14370;DHT22;7268;50.792;0.252;2023-07-31T08:36:15;17.20;99.90
14370;DHT22;7268;50.792;0.252;2023-07-31T08:38:42;17.20;99.90
14370;DHT22;7268;50.792;0.252;2023-07-31T08:41:09;17.20;99.90
14370;DHT22;7268;50.792;0.252;2023-07-31T08:43:36;17.20;99.90
14370;DHT22;7268;50.792;0.252;2023-07-31T08:46:04;17.10;99.90
14370;DHT22;7268;50.792;0.252;2023-07-31T08:48:32;17.20;99.90
14370;DHT22;7268;50.792;0.252;2023-07-31T08:51:00;17.20;99.90
14370;DHT22;7268;50.792;0.252;2023-07-31T08:53:27;17.20;99.90
14370;DHT22;7268;50.792;0.252;2023-07-31T08:55:54;17.20;99.90
14370;DHT22;7268;50.792;0.252;2023-07-31T08:58:24;17.30;99.90
14370;DHT22;7268;50.792;0.252;2023-07-31T09:00:52;17.30;99.90
14370;DHT22;7268;50.792;0.252;2023-07-31T09:03:23;17.20;99.90
14370;DHT22;7268;50.792;0.252;2023-07-31T09:05:53;17.10;99.90
14370;DHT22;7268;50.792;0.252;2023-07-31T09:08:22;17.30;99.90
14370;DHT22;7268;50.792;0.252;2023-07-31T09:10:48;17.20;99.90
14370;DHT22;7268;50.792;0.252;2023-07-31T09:13:18;17.30;99.90
14370;DHT22;7268;50.792;0.252;2023-07-31T09:15:46;17.30;99.90
14370;DHT22;7268;50.792;0.252;2023-07-31T09:18:13;17.30;99.90
14370;DHT22;7268;50.792;0.252;2023-07-31T09:20:45;17.30;99.90
14370;DHT22;7268;50.792;0.252;2023-07-31T09:23:14;17.40;99.90
14370;DHT22;7268;50.792;0.252;2023-07-31T09:25:46;17.30;99.90
14370;DHT22;7268;50.792;0.252;2023-07-31T09:28:13;17.30;99.90
14370;DHT22;7268;50.792;0.252;2023-07-31T09:30:51;17.30;99.90
14370;DHT22;7268;50.792;0.252;2023-07-31T09:33:19;17.30;99.90
14370;DHT22;7268;50.792;0.252;2023-07-31T09:35:47;17.30;99.90
14370;DHT22;7268;50.792;0.252;2023-07-31T09:38:15;17.50;99.90
14370;DHT22;7268;50.792;0.252;2023-07-31T09:40:44;17.40;99.90
14370;DHT22;7268;50.792;0.252;2023-07-31T09:43:14;17.50;99.90
14370;DHT22;7268;50.792;0.252;2023-07-31T09:45:44;17.50;99.90
14370;DHT22;7268;50.792;0.252;2023-07-31T09:48:13;17.60;99.90
14370;DHT22;7268;50.792;0.252;2023-07-31T09:50:47;17.60;99.90
14370;DHT22;7268;50.792;0.252;2023-07-31T09:53:16;17.60;99.90
14370;DHT22;7268;50.792;0.252;2023-07-31T09:55:43;17.60;99.90
14370;DHT22;7268;50.792;0.252;2023-07-31T09:58:12;17.60;99.90
14370;DHT22;7268;50.792;0.252;2023-07-31T10:00:39;17.70;99.90
14370;DHT22;7268;50.792;0.252;2023-07-31T10:03:08;17.60;99.90
14370;DHT22;7268;50.792;0.252;2023-07-31T10:05:47;17.70;99.90
14370;DHT22;7268;50.792;0.252;2023-07-31T10:08:18;17.60;99.90
14370;DHT22;7268;50.792;0.252;2023-07-31T10:10:46;17.60;99.90
14370;DHT22;7268;50.792;0.252;2023-07-31T10:13:14;17.60;99.90
14370;DHT22;7268;50.792;0.252;2023-07-31T10:15:42;17.50;99.90
14370;DHT22;7268;50.792;0.252;2023-07-31T10:18:10;17.50;99.90
14370;DHT22;7268;50.792;0.252;2023-07-31T10:20:38;17.70;99.90
14370;DHT22;7268;50.792;0.252;2023-07-31T10:23:05;17.70;99.90
14370;DHT22;7268;50.792;0.252;2023-07-31T10:25:33;17.60;99.90
14370;DHT22;7268;50.792;0.252;2023-07-31T10:28:01;17.60;99.90
14370;DHT22;7268;50.792;0.252;2023-07-31T10:30:30;17.60;99.90
14370;DHT22;7268;50.792;0.252;2023-07-31T10:32:57;17.50;99.90
14370;DHT22;7268;50.792;0.252;2023-07-31T10:35:25;17.60;99.90
14370;DHT22;7268;50.792;0.252;2023-07-31T10:37:52;17.80;99.90
14370;DHT22;7268;50.792;0.252;2023-07-31T10:40:25;17.80;99.90
14370;DHT22;7268;50.792;0.252;2023-07-31T10:42:54;17.80;99.90
14370;DHT22;7268;50.792;0.252;2023-07-31T10:45:35;17.80;99.90
14370;DHT22;7268;50.792;0.252;2023-07-31T10:48:07;17.80;99.90
14370;DHT22;7268;50.792;0.252;2023-07-31T10:50:52;17.80;99.90
14370;DHT22;7268;50.792;0.252;2023-07-31T10:53:29;17.90;99.90
14370;DHT22;7268;50.792;0.252;2023-07-31T10:56:01;17.80;99.90
14370;DHT22;7268;50.792;0.252;2023-07-31T10:58:30;17.90;99.90
14370;DHT22;7268;50.792;0.252;2023-07-31T11:01:02;18.00;99.90
14370;DHT22;7268;50.792;0.252;2023-07-31T11:03:50;18.00;99.90
14370;DHT22;7268;50.792;0.252;2023-07-31T11:06:20;17.90;99.90
14370;DHT22;7268;50.792;0.252;2023-07-31T11:08:49;17.90;99.90
14370;DHT22;7268;50.792;0.252;2023-07-31T11:11:18;17.80;99.90
14370;DHT22;7268;50.792;0.252;2023-07-31T11:13:47;17.70;99.90
14370;DHT22;7268;50.792;0.252;2023-07-31T11:16:21;17.70;99.90
14370;DHT22;7268;50.792;0.252;2023-07-31T11:18:49;17.70;99.90
14370;DHT22;7268;50.792;0.252;2023-07-31T11:21:20;17.60;99.90
14370;DHT22;7268;50.792;0.252;2023-07-31T11:23:49;17.60;99.90
14370;DHT22;7268;50.792;0.252;2023-07-31T11:26:17;17.60;99.90
14370;DHT22;7268;50.792;0.252;2023-07-31T11:28:47;17.70;99.90
14370;DHT22;7268;50.792;0.252;2023-07-31T11:31:15;17.70;99.90
14370;DHT22;7268;50.792;0.252;2023-07-31T11:33:42;17.60;99.90
14370;DHT22;7268;50.792;0.252;2023-07-31T11:36:17;17.60;99.90
14370;DHT22;7268;50.792;0.252;2023-07-31T11:38:44;17.60;99.90
14370;DHT22;7268;50.792;0.252;2023-07-31T11:41:14;17.60;99.90
14370;DHT22;7268;50.792;0.252;2023-07-31T11:43:42;17.60;99.90
14370;DHT22;7268;50.792;0.252;2023-07-31T11:46:09;17.60;99.90
14370;DHT22;7268;50.792;0.252;2023-07-31T11:48:37;17.60;99.90
14370;DHT22;7268;50.792;0.252;2023-07-31T11:51:06;17.50;99.90
14370;DHT22;7268;50.792;0.252;2023-07-31T11:53:41;17.60;99.90
14370;DHT22;7268;50.792;0.252;2023-07-31T11:56:13;17.60;99.90
14370;DHT22;7268;50.792;0.252;2023-07-31T11:58:41;17.60;99.90
14370;DHT22;7268;50.792;0.252;2023-07-31T12:01:10;17.60;99.90
14370;DHT22;7268;50.792;0.252;2023-07-31T12:03:38;17.50;99.90
14370;DHT22;7268;50.792;0.252;2023-07-31T12:06:05;17.60;99.90
14370;DHT22;7268;50.792;0.252;2023-07-31T12:08:32;17.60;99.90
14370;DHT22;7268;50.792;0.252;2023-07-31T12:11:04;17.70;99.90
14370;DHT22;7268;50.792;0.252;2023-07-31T12:13:33;17.70;99.90
14370;DHT22;7268;50.792;0.252;2023-07-31T12:16:02;17.70;99.90
14370;DHT22;7268;50.792;0.252;2023-07-31T12:18:37;17.80;99.90
14370;DHT22;7268;50.792;0.252;2023-07-31T12:21:06;17.80;99.90
14370;DHT22;7268;50.792;0.252;2023-07-31T12:23:36;17.90;99.90
14370;DHT22;7268;50.792;0.252;2023-07-31T12:26:15;17.80;99.90
14370;DHT22;7268;50.792;0.252;2023-07-31T12:28:44;17.70;99.90
14370;DHT22;7268;50.792;0.252;2023-07-31T12:31:16;17.80;99.90
14370;DHT22;7268;50.792;0.252;2023-07-31T12:33:47;17.70;99.90
14370;DHT22;7268;50.792;0.252;2023-07-31T12:36:21;17.80;99.90
14370;DHT22;7268;50.792;0.252;2023-07-31T12:38:49;17.70;99.90
14370;DHT22;7268;50.792;0.252;2023-07-31T12:41:16;17.80;99.90
14370;DHT22;7268;50.792;0.252;2023-07-31T12:43:44;17.90;99.90
14370;DHT22;7268;50.792;0.252;2023-07-31T12:46:12;17.90;99.90
14370;DHT22;7268;50.792;0.252;2023-07-31T12:48:39;17.80;99.90
14370;DHT22;7268;50.792;0.252;2023-07-31T12:51:07;17.80;99.90
14370;DHT22;7268;50.792;0.252;2023-07-31T12:53:35;17.80;99.90
14370;DHT22;7268;50.792;0.252;2023-07-31T12:56:02;17.90;99.90
14370;DHT22;7268;50.792;0.252;2023-07-31T12:58:29;18.00;99.90
14370;DHT22;7268;50.792;0.252;2023-07-31T13:00:56;17.90;99.90
14370;DHT22;7268;50.792;0.252;2023-07-31T13:03:23;17.80;99.90
14370;DHT22;7268;50.792;0.252;2023-07-31T13:05:50;17.80;99.90
14370;DHT22;7268;50.792;0.252;2023-07-31T13:08:19;17.80;99.90
14370;DHT22;7268;50.792;0.252;2023-07-31T13:10:46;17.90;99.90
14370;DHT22;7268;50.792;0.252;2023-07-31T13:13:13;17.80;99.90
14370;DHT22;7268;50.792;0.252;2023-07-31T13:15:40;17.90;99.90
14370;DHT22;7268;50.792;0.252;2023-07-31T13:18:07;17.90;99.90
14370;DHT22;7268;50.792;0.252;2023-07-31T13:20:34;18.00;99.90
14370;DHT22;7268;50.792;0.252;2023-07-31T13:23:01;18.00;99.90
14370;DHT22;7268;50.792;0.252;2023-07-31T13:25:27;18.00;99.90
14370;DHT22;7268;50.792;0.252;2023-07-31T13:27:55;18.10;99.90
14370;DHT22;7268;50.792;0.252;2023-07-31T13:30:23;18.10;99.90
14370;DHT22;7268;50.792;0.252;2023-07-31T13:32:50;18.00;99.90
14370;DHT22;7268;50.792;0.252;2023-07-31T13:35:17;18.00;99.90
14370;DHT22;7268;50.792;0.252;2023-07-31T13:37:43;18.00;99.90
14370;DHT22;7268;50.792;0.252;2023-07-31T13:40:11;18.10;99.90
14370;DHT22;7268;50.792;0.252;2023-07-31T13:42:38;18.30;99.90
14370;DHT22;7268;50.792;0.252;2023-07-31T13:45:05;18.30;99.90
14370;DHT22;7268;50.792;0.252;2023-07-31T13:47:33;18.20;99.90
14370;DHT22;7268;50.792;0.252;2023-07-31T13:50:01;18.30;99.90
14370;DHT22;7268;50.792;0.252;2023-07-31T13:52:29;18.20;99.90
14370;DHT22;7268;50.792;0.252;2023-07-31T13:54:55;18.20;99.90
14370;DHT22;7268;50.792;0.252;2023-07-31T13:57:22;18.20;99.90
14370;DHT22;7268;50.792;0.252;2023-07-31T13:59:50;18.40;99.90
14370;DHT22;7268;50.792;0.252;2023-07-31T14:02:17;18.20;99.90
14370;DHT22;7268;50.792;0.252;2023-07-31T14:04:44;18.10;99.90
14370;DHT22;7268;50.792;0.252;2023-07-31T14:07:11;18.10;99.90
14370;DHT22;7268;50.792;0.252;2023-07-31T14:09:38;18.00;99.90
14370;DHT22;7268;50.792;0.252;2023-07-31T14:12:05;18.00;99.90
14370;DHT22;7268;50.792;0.252;2023-07-31T14:14:32;17.90;99.90
14370;DHT22;7268;50.792;0.252;2023-07-31T14:17:01;17.90;99.90
14370;DHT22;7268;50.792;0.252;2023-07-31T14:19:28;17.90;99.90
14370;DHT22;7268;50.792;0.252;2023-07-31T14:21:57;17.80;99.90
14370;DHT22;7268;50.792;0.252;2023-07-31T14:24:38;17.90;99.90
14370;DHT22;7268;50.792;0.252;2023-07-31T14:27:04;17.90;99.90
14370;DHT22;7268;50.792;0.252;2023-07-31T14:29:31;17.70;99.90
14370;DHT22;7268;50.792;0.252;2023-07-31T14:31:58;17.60;99.90
14370;DHT22;7268;50.792;0.252;2023-07-31T14:34:27;17.60;99.90
14370;DHT22;7268;50.792;0.252;2023-07-31T14:36:54;17.50;99.90
14370;DHT22;7268;50.792;0.252;2023-07-31T14:39:20;17.50;99.90
14370;DHT22;7268;50.792;0.252;2023-07-31T14:41:47;17.50;99.90
14370;DHT22;7268;50.792;0.252;2023-07-31T14:44:15;17.50;99.90
14370;DHT22;7268;50.792;0.252;2023-07-31T14:46:42;17.40;99.90
14370;DHT22;7268;50.792;0.252;2023-07-31T14:49:09;17.40;99.90
14370;DHT22;7268;50.792;0.252;2023-07-31T14:51:36;17.40;99.90
14370;DHT22;7268;50.792;0.252;2023-07-31T14:54:03;17.40;99.90
14370;DHT22;7268;50.792;0.252;2023-07-31T14:56:30;17.50;99.90
14370;DHT22;7268;50.792;0.252;2023-07-31T14:58:57;17.50;99.90
14370;DHT22;7268;50.792;0.252;2023-07-31T15:01:24;17.50;99.90
14370;DHT22;7268;50.792;0.252;2023-07-31T15:03:51;17.50;99.90
14370;DHT22;7268;50.792;0.252;2023-07-31T15:06:18;17.40;99.90
14370;DHT22;7268;50.792;0.252;2023-07-31T15:08:45;17.30;99.90
14370;DHT22;7268;50.792;0.252;2023-07-31T15:11:12;17.30;99.90
14370;DHT22;7268;50.792;0.252;2023-07-31T15:13:39;17.20;99.90
14370;DHT22;7268;50.792;0.252;2023-07-31T15:16:06;17.20;99.90
14370;DHT22;7268;50.792;0.252;2023-07-31T15:18:33;17.10;99.90
14370;DHT22;7268;50.792;0.252;2023-07-31T15:21:00;17.10;99.90
14370;DHT22;7268;50.792;0.252;2023-07-31T15:23:27;17.30;99.90
14370;DHT22;7268;50.792;0.252;2023-07-31T15:25:54;17.40;99.90
14370;DHT22;7268;50.792;0.252;2023-07-31T15:28:21;17.40;99.90
14370;DHT22;7268;50.792;0.252;2023-07-31T15:30:48;17.40;99.90
14370;DHT22;7268;50.792;0.252;2023-07-31T15:33:15;17.50;99.90
14370;DHT22;7268;50.792;0.252;2023-07-31T15:35:42;17.40;99.90
14370;DHT22;7268;50.792;0.252;2023-07-31T15:38:10;17.30;99.90
14370;DHT22;7268;50.792;0.252;2023-07-31T15:40:38;17.10;99.90
14370;DHT22;7268;50.792;0.252;2023-07-31T15:43:05;17.10;99.90
14370;DHT22;7268;50.792;0.252;2023-07-31T15:45:32;17.10;99.90
14370;DHT22;7268;50.792;0.252;2023-07-31T15:47:59;17.10;99.90
14370;DHT22;7268;50.792;0.252;2023-07-31T15:50:26;17.10;99.90
14370;DHT22;7268;50.792;0.252;2023-07-31T15:52:53;17.20;99.90
14370;DHT22;7268;50.792;0.252;2023-07-31T15:55:20;17.10;99.90
14370;DHT22;7268;50.792;0.252;2023-07-31T15:57:48;17.10;99.90